Time;durP1;ratioP1;P1;durP2;ratioP2;P2;SDS_P1;SDS_P2;PMS_P1;PMS_P2;Temp;Humidity;BMP_temperature;BMP_pressure;BME280_temperature;BME280_humidity;BME280_pressure;Samples;Min_cycle;Max_cycle;Signal;HPM_P1;HPM_P2
2022/03/16 00:00:02;;;;;;;4.45;3.10;;;-1.60;95.30;;;;;;5077890;28;20471;-90
2022/03/16 00:02:28;;;;;;;4.95;2.90;;;-1.60;95.60;;;;;;5077605;28;20046;-90
2022/03/16 00:04:55;;;;;;;3.45;2.70;;;-1.60;95.70;;;;;;5077573;28;20126;-90
2022/03/16 00:07:22;;;;;;;3.40;2.72;;;-1.60;95.70;;;;;;5077429;28;20024;-90
2022/03/16 00:09:48;;;;;;;6.57;3.28;;;-1.60;95.90;;;;;;5077266;28;20040;-89
2022/03/16 00:12:15;;;;;;;4.82;2.78;;;-1.70;96.30;;;;;;5077301;28;20470;-90
2022/03/16 00:14:41;;;;;;;5.07;2.88;;;-1.60;96.20;;;;;;5095320;28;20027;-91
2022/03/16 00:17:08;;;;;;;8.90;3.17;;;-1.70;96.20;;;;;;5078265;28;20028;-90
2022/03/16 00:19:34;;;;;;;4.55;2.80;;;-1.70;96.40;;;;;;5077281;28;20046;-90
2022/03/16 00:22:02;;;;;;;3.88;3.05;;;-1.70;96.30;;;;;;5077042;28;20028;-90
2022/03/16 00:24:27;;;;;;;4.25;2.92;;;-1.80;96.50;;;;;;5077199;28;20035;-91
2022/03/16 00:26:53;;;;;;;4.88;3.10;;;-1.70;96.70;;;;;;5077703;28;20032;-91
2022/03/16 00:29:19;;;;;;;5.85;3.63;;;-1.80;96.70;;;;;;5077293;28;20068;-90
2022/03/16 00:31:44;;;;;;;4.57;3.05;;;-1.80;96.70;;;;;;5077101;28;20470;-90
2022/03/16 00:34:10;;;;;;;5.07;3.40;;;-1.80;96.90;;;;;;5076692;28;20020;-90
2022/03/16 00:36:36;;;;;;;4.88;3.30;;;-1.80;96.80;;;;;;5077048;28;20020;-90
2022/03/16 00:39:03;;;;;;;5.03;3.42;;;-1.80;97.00;;;;;;5076838;28;20020;-90
2022/03/16 00:41:29;;;;;;;6.40;3.70;;;-1.80;97.30;;;;;;5076801;28;20024;-91
2022/03/16 00:43:54;;;;;;;4.72;3.35;;;-1.80;97.20;;;;;;5076742;28;20523;-91
2022/03/16 00:46:20;;;;;;;5.22;3.50;;;-1.80;97.40;;;;;;5076752;28;20020;-90
2022/03/16 00:48:46;;;;;;;5.47;3.95;;;-1.80;97.70;;;;;;5076780;28;20032;-91
2022/03/16 00:51:12;;;;;;;8.23;4.00;;;-1.90;97.80;;;;;;5077267;28;20032;-91
2022/03/16 00:53:39;;;;;;;5.28;3.67;;;-1.90;97.80;;;;;;5077504;28;20115;-91
2022/03/16 00:56:06;;;;;;;5.63;3.85;;;-1.80;97.70;;;;;;5076798;28;20020;-90
2022/03/16 00:58:32;;;;;;;7.85;4.00;;;-1.90;97.80;;;;;;5077415;28;20458;-91
2022/03/16 01:00:59;;;;;;;5.20;3.88;;;-1.90;98.20;;;;;;5076984;28;20035;-91
2022/03/16 01:03:25;;;;;;;8.25;4.32;;;-1.90;98.10;;;;;;5076502;28;20028;-91
2022/03/16 01:05:52;;;;;;;7.45;4.50;;;-1.80;98.20;;;;;;5076449;28;20069;-91
2022/03/16 01:08:18;;;;;;;6.03;3.92;;;-1.90;98.30;;;;;;5076258;28;20104;-92
2022/03/16 01:10:44;;;;;;;7.68;4.47;;;-1.90;98.30;;;;;;5076706;28;20049;-92
2022/03/16 01:13:09;;;;;;;7.03;4.32;;;-1.90;98.40;;;;;;5077617;28;20486;-92
2022/03/16 01:15:35;;;;;;;7.65;4.32;;;-1.90;98.60;;;;;;5076600;28;20485;-91
2022/03/16 01:18:01;;;;;;;9.23;4.93;;;-1.90;98.60;;;;;;5076403;28;20031;-91
2022/03/16 01:20:30;;;;;;;5.70;4.15;;;-1.90;98.80;;;;;;5077123;28;20035;-91
2022/03/16 01:22:55;;;;;;;8.40;4.57;;;-1.90;99.00;;;;;;5076521;28;20425;-91
2022/03/16 01:25:22;;;;;;;6.53;4.25;;;-2.00;99.30;;;;;;5076318;28;20082;-91
2022/03/16 01:27:47;;;;;;;7.03;4.18;;;-2.00;99.20;;;;;;5076301;28;20035;-90
2022/03/16 01:30:16;;;;;;;8.10;4.10;;;-2.00;99.50;;;;;;5076334;28;20028;-90
2022/03/16 01:32:42;;;;;;;6.75;4.38;;;-2.00;99.50;;;;;;5076688;28;20505;-90
2022/03/16 01:35:09;;;;;;;7.70;4.20;;;-2.00;99.50;;;;;;5076998;28;20077;-91
2022/03/16 01:37:35;;;;;;;9.20;4.38;;;-2.00;99.50;;;;;;5076306;28;20028;-90
2022/03/16 01:40:01;;;;;;;6.45;4.43;;;-2.10;99.70;;;;;;5076288;28;20020;-91
2022/03/16 01:42:27;;;;;;;7.03;4.10;;;-2.10;99.90;;;;;;5077045;28;20093;-91
2022/03/16 01:44:57;;;;;;;6.40;4.05;;;-2.10;99.90;;;;;;5078231;28;20459;-91
2022/03/16 01:47:24;;;;;;;7.17;4.13;;;-2.10;99.90;;;;;;5080230;28;20119;-90
2022/03/16 01:49:53;;;;;;;7.45;4.20;;;-2.10;99.90;;;;;;5080096;28;20101;-91
2022/03/16 01:52:21;;;;;;;6.78;4.03;;;-2.10;99.90;;;;;;5080436;28;20162;-91
2022/03/16 01:54:48;;;;;;;8.38;3.85;;;-2.20;99.90;;;;;;5080139;28;20028;-91
2022/03/16 01:57:15;;;;;;;5.70;4.22;;;-2.20;99.90;;;;;;5080465;28;20058;-90
2022/03/16 01:59:42;;;;;;;8.23;3.97;;;-2.20;99.90;;;;;;5079920;28;20028;-90
2022/03/16 02:02:09;;;;;;;8.00;4.47;;;-2.20;99.90;;;;;;5079981;28;20073;-90
2022/03/16 02:04:34;;;;;;;6.03;4.20;;;-2.20;99.90;;;;;;5079756;28;20020;-90
2022/03/16 02:07:00;;;;;;;6.00;4.15;;;-2.20;99.90;;;;;;5079822;28;20024;-90
2022/03/16 02:09:27;;;;;;;6.35;4.07;;;-2.30;99.90;;;;;;5079421;28;20051;-90
2022/03/16 02:11:53;;;;;;;7.25;4.40;;;-2.30;99.90;;;;;;5079811;28;20119;-91
2022/03/16 02:14:18;;;;;;;7.18;4.55;;;-2.30;99.90;;;;;;5098284;28;20062;-89
2022/03/16 02:16:45;;;;;;;9.00;5.10;;;-2.30;99.90;;;;;;5079867;28;20048;-90
2022/03/16 02:19:11;;;;;;;7.30;4.85;;;-2.30;99.90;;;;;;5079412;28;20034;-90
2022/03/16 02:21:38;;;;;;;10.02;5.35;;;-2.40;99.90;;;;;;5079547;28;20103;-90
2022/03/16 02:24:08;;;;;;;7.47;4.88;;;-2.30;99.90;;;;;;5079655;28;20021;-90
2022/03/16 02:26:35;;;;;;;8.32;5.05;;;-2.30;99.90;;;;;;5079475;28;20021;-90
2022/03/16 02:29:01;;;;;;;8.05;5.07;;;-2.30;99.90;;;;;;5080249;28;20070;-90
2022/03/16 02:31:27;;;;;;;8.32;5.28;;;-2.30;99.90;;;;;;5079226;28;20043;-90
2022/03/16 02:33:53;;;;;;;8.35;4.72;;;-2.40;99.90;;;;;;5062899;28;20028;-90
2022/03/16 02:36:19;;;;;;;9.13;5.50;;;-2.30;99.90;;;;;;5079783;28;20111;-90
2022/03/16 02:38:45;;;;;;;6.55;4.40;;;-2.30;99.90;;;;;;5079260;28;20031;-90
2022/03/16 02:41:11;;;;;;;8.05;4.57;;;-2.40;99.90;;;;;;5079032;28;20028;-90
2022/03/16 02:43:37;;;;;;;7.05;5.18;;;-2.30;99.90;;;;;;5079996;28;20378;-90
2022/03/16 02:46:03;;;;;;;7.88;4.70;;;-2.40;99.90;;;;;;5079303;28;20496;-90
2022/03/16 02:48:29;;;;;;;8.55;4.82;;;-2.40;99.90;;;;;;5078965;28;20094;-90
2022/03/16 02:50:55;;;;;;;6.18;4.40;;;-2.50;99.90;;;;;;5079070;28;20059;-90
2022/03/16 02:53:21;;;;;;;6.97;4.38;;;-2.50;99.90;;;;;;5079058;28;20024;-90
2022/03/16 02:55:48;;;;;;;12.18;4.38;;;-2.50;99.90;;;;;;5078637;28;20028;-90
2022/03/16 02:58:15;;;;;;;6.15;4.28;;;-2.50;99.90;;;;;;5078844;28;20115;-90
2022/03/16 03:00:41;;;;;;;7.43;4.45;;;-2.50;99.90;;;;;;5078836;28;20035;-90
2022/03/16 03:03:07;;;;;;;7.68;4.53;;;-2.40;99.90;;;;;;5078740;28;20110;-90
2022/03/16 03:05:33;;;;;;;7.05;4.47;;;-2.50;99.90;;;;;;5078760;28;20120;-90
2022/03/16 03:07:59;;;;;;;6.47;4.55;;;-2.50;99.90;;;;;;5078455;28;20027;-89
2022/03/16 03:10:25;;;;;;;5.43;3.80;;;-2.50;99.90;;;;;;5078843;28;20048;-90
2022/03/16 03:12:51;;;;;;;7.32;4.00;;;-2.50;99.90;;;;;;5078524;28;20482;-90
2022/03/16 03:15:17;;;;;;;5.72;4.00;;;-2.50;99.90;;;;;;5079591;28;20020;-90
2022/03/16 03:17:43;;;;;;;7.75;3.58;;;-2.50;99.90;;;;;;5079202;28;20111;-91
2022/03/16 03:20:09;;;;;;;6.45;4.45;;;-2.50;99.90;;;;;;5078827;28;20104;-91
2022/03/16 03:22:35;;;;;;;8.55;4.30;;;-2.60;99.90;;;;;;5078161;28;20028;-91
2022/03/16 03:25:02;;;;;;;6.75;4.65;;;-2.50;99.90;;;;;;5078390;28;20031;-90
2022/03/16 03:27:28;;;;;;;8.18;4.55;;;-2.60;99.90;;;;;;5078196;28;20050;-91
2022/03/16 03:29:53;;;;;;;6.45;4.40;;;-2.60;99.90;;;;;;5079065;28;20024;-91
2022/03/16 03:32:19;;;;;;;6.47;3.95;;;-2.60;99.90;;;;;;5078158;28;20407;-91
2022/03/16 03:34:47;;;;;;;6.05;4.05;;;-2.60;99.90;;;;;;5078353;28;20463;-90
2022/03/16 03:37:17;;;;;;;6.35;3.97;;;-2.60;99.90;;;;;;5078448;28;20103;-90
2022/03/16 03:39:43;;;;;;;5.90;3.80;;;-2.60;99.90;;;;;;5077897;28;20031;-90
2022/03/16 03:42:09;;;;;;;6.78;3.83;;;-2.60;99.90;;;;;;5078166;28;20032;-91
2022/03/16 03:44:38;;;;;;;5.30;4.03;;;-2.60;99.90;;;;;;5077817;28;20061;-90
2022/03/16 03:47:09;;;;;;;6.93;4.10;;;-2.60;99.90;;;;;;5077871;28;20448;-90
2022/03/16 03:49:36;;;;;;;8.30;4.78;;;-2.60;99.90;;;;;;5077823;28;20409;-90
2022/03/16 03:52:02;;;;;;;7.30;4.40;;;-2.60;99.90;;;;;;5078030;28;20028;-91
2022/03/16 03:54:28;;;;;;;6.75;4.20;;;-2.70;99.90;;;;;;5078513;28;20093;-90
2022/03/16 03:56:54;;;;;;;5.65;3.70;;;-2.70;99.90;;;;;;5077841;28;20028;-90
2022/03/16 03:59:20;;;;;;;5.57;3.78;;;-2.70;99.90;;;;;;5077935;28;20023;-90
2022/03/16 04:01:47;;;;;;;6.75;3.85;;;-2.70;99.90;;;;;;5077701;28;20107;-90
2022/03/16 04:04:13;;;;;;;5.55;3.67;;;-2.70;99.90;;;;;;5077549;28;20028;-90
2022/03/16 04:06:39;;;;;;;10.57;3.45;;;-2.70;99.90;;;;;;5077841;28;20127;-90
2022/03/16 04:09:05;;;;;;;5.95;3.78;;;-2.70;99.50;;;;;;5076140;28;20051;-90
2022/03/16 04:11:34;;;;;;;7.85;4.13;;;-2.70;99.60;;;;;;5077435;28;20024;-90
2022/03/16 04:13:59;;;;;;;8.25;3.67;;;-2.70;99.40;;;;;;5077453;28;20163;-90
2022/03/16 04:16:26;;;;;;;5.35;4.05;;;-2.70;99.40;;;;;;5095901;28;20024;-90
2022/03/16 04:18:51;;;;;;;6.53;4.00;;;-2.70;99.50;;;;;;5077287;28;20054;-90
2022/03/16 04:21:17;;;;;;;6.70;4.00;;;-2.70;99.30;;;;;;5077452;28;20028;-91
2022/03/16 04:23:43;;;;;;;6.70;4.00;;;-2.70;99.50;;;;;;5077326;28;20024;-90
2022/03/16 04:26:09;;;;;;;4.97;3.85;;;-2.60;99.50;;;;;;5077255;28;20470;-90
2022/03/16 04:28:35;;;;;;;5.97;3.90;;;-2.70;99.10;;;;;;5077214;28;20028;-90
2022/03/16 04:31:01;;;;;;;5.75;4.20;;;-2.60;99.30;;;;;;5078009;28;20028;-90
2022/03/16 04:33:28;;;;;;;4.75;3.47;;;-2.70;99.30;;;;;;5078766;28;20067;-90
2022/03/16 04:36:00;;;;;;;6.95;3.85;;;-2.60;99.00;;;;;;5077160;28;20055;-90
2022/03/16 04:38:25;;;;;;;4.72;3.70;;;-2.70;98.90;;;;;;5077497;28;20020;-90
2022/03/16 04:40:51;;;;;;;6.70;4.03;;;-2.60;99.00;;;;;;5077087;28;20028;-89
2022/03/16 04:43:16;;;;;;;5.75;4.05;;;-2.60;99.00;;;;;;5077032;28;20413;-90
2022/03/16 04:45:43;;;;;;;6.47;3.95;;;-2.70;99.10;;;;;;5076599;28;20020;-91
2022/03/16 04:48:11;;;;;;;5.50;3.95;;;-2.50;99.10;;;;;;5076869;28;20458;-91
2022/03/16 04:50:41;;;;;;;7.18;4.00;;;-2.50;98.80;;;;;;5077077;28;20024;-90
2022/03/16 04:53:07;;;;;;;7.65;4.93;;;-2.50;98.80;;;;;;5076810;28;20082;-90
2022/03/16 04:55:35;;;;;;;9.32;4.50;;;-2.40;98.40;;;;;;5077109;28;20408;-91
2022/03/16 04:58:02;;;;;;;7.05;4.00;;;-2.40;98.60;;;;;;5077000;28;20024;-91
2022/03/16 05:00:28;;;;;;;8.88;4.60;;;-2.40;98.40;;;;;;5077006;28;20028;-90
2022/03/16 05:02:54;;;;;;;12.38;4.90;;;-2.40;98.20;;;;;;5078622;28;20035;-90
2022/03/16 05:05:21;;;;;;;8.98;5.00;;;-2.40;98.10;;;;;;5079513;28;20020;-91
2022/03/16 05:07:48;;;;;;;9.40;4.85;;;-2.40;97.90;;;;;;5077628;28;20073;-91
2022/03/16 05:10:17;;;;;;;8.40;5.07;;;-2.30;98.10;;;;;;5074066;28;20407;-91
2022/03/16 05:12:44;;;;;;;10.52;5.40;;;-2.20;98.00;;;;;;5073651;28;20467;-91
2022/03/16 05:15:14;;;;;;;7.70;4.60;;;-2.10;97.90;;;;;;5073449;28;20029;-91
2022/03/16 05:17:40;;;;;;;10.43;5.40;;;-2.00;98.00;;;;;;5073081;28;20039;-91
2022/03/16 05:20:07;;;;;;;9.50;5.28;;;-1.90;97.70;;;;;;5072789;28;20434;-90
2022/03/16 05:22:52;;;;;;;12.73;5.90;;;-1.80;97.90;;;;;;5073563;28;20052;-91
2022/03/16 05:25:25;;;;;;;17.00;7.90;;;-1.70;97.00;;;;;;5073212;28;20025;-90
2022/03/16 05:27:51;;;;;;;13.55;5.70;;;-1.70;96.90;;;;;;5073098;28;20037;-91
2022/03/16 05:30:20;;;;;;;38.75;6.43;;;-1.60;97.00;;;;;;5072920;28;20017;-92
2022/03/16 05:32:46;;;;;;;13.27;5.97;;;-1.60;97.40;;;;;;5075806;28;20029;-90
2022/03/16 05:35:13;;;;;;;8.60;5.38;;;-1.50;97.40;;;;;;5073218;28;20075;-90
2022/03/16 05:37:41;;;;;;;11.13;5.60;;;-1.50;97.10;;;;;;5072915;28;20020;-90
2022/03/16 05:40:08;;;;;;;9.23;5.63;;;-1.40;97.10;;;;;;5071852;28;20028;-90
2022/03/16 05:42:34;;;;;;;10.27;5.50;;;-1.30;97.50;;;;;;5071816;28;20048;-89
2022/03/16 05:45:01;;;;;;;8.95;6.13;;;-1.40;99.90;;;;;;5071031;28;20029;-89
2022/03/16 05:47:27;;;;;;;8.90;5.68;;;-1.40;99.90;;;;;;5071265;28;20020;-90
2022/03/16 05:49:54;;;;;;;8.52;5.90;;;-1.50;99.90;;;;;;5070294;28;20031;-90
2022/03/16 05:52:23;;;;;;;9.20;6.20;;;-1.50;99.90;;;;;;5071563;28;20078;-89
2022/03/16 05:54:50;;;;;;;10.13;6.40;;;-1.60;99.90;;;;;;5071712;28;20375;-89
2022/03/16 05:57:16;;;;;;;10.90;6.28;;;-1.60;99.90;;;;;;5072097;28;20024;-89
2022/03/16 05:59:43;;;;;;;13.43;7.20;;;-1.60;99.90;;;;;;5072045;28;20033;-89
2022/03/16 06:02:09;;;;;;;13.73;7.60;;;-1.60;99.90;;;;;;5072078;28;20386;-89
2022/03/16 06:04:36;;;;;;;12.35;7.45;;;-1.70;99.90;;;;;;5071390;28;20024;-89
2022/03/16 06:07:03;;;;;;;10.90;7.05;;;-1.70;99.90;;;;;;5071446;28;20048;-90
2022/03/16 06:09:28;;;;;;;14.82;7.65;;;-1.60;99.90;;;;;;5071876;28;20525;-89
2022/03/16 06:11:54;;;;;;;13.10;7.22;;;-1.50;99.90;;;;;;5072526;28;20119;-90
2022/03/16 06:14:19;;;;;;;14.45;7.20;;;-1.50;99.90;;;;;;5072251;28;20111;-90
2022/03/16 06:16:47;;;;;;;12.95;6.75;;;-1.40;99.90;;;;;;5072518;28;20033;-90
2022/03/16 06:19:13;;;;;;;11.60;6.88;;;-1.20;99.90;;;;;;5072224;28;20028;-90
2022/03/16 06:21:38;;;;;;;12.77;6.85;;;-1.10;99.90;;;;;;5072300;28;20417;-90
2022/03/16 06:24:05;;;;;;;12.70;7.13;;;-1.10;99.90;;;;;;5072335;28;20021;-90
2022/03/16 06:26:31;;;;;;;11.52;7.22;;;-1.00;99.90;;;;;;5072409;28;20108;-90
2022/03/16 06:28:56;;;;;;;15.48;7.47;;;-1.00;99.90;;;;;;5072388;28;20124;-91
2022/03/16 06:31:22;;;;;;;12.02;6.82;;;-0.90;99.90;;;;;;5073701;28;20435;-90
2022/03/16 06:33:48;;;;;;;12.30;6.85;;;-0.80;99.90;;;;;;5076193;28;20021;-90
2022/03/16 06:36:14;;;;;;;11.50;6.78;;;-0.70;99.90;;;;;;5075982;28;20048;-91
2022/03/16 06:38:39;;;;;;;9.52;6.63;;;-0.60;99.90;;;;;;5075946;28;20028;-90
2022/03/16 06:41:05;;;;;;;13.02;6.97;;;-0.50;99.90;;;;;;5075606;28;20033;-91
2022/03/16 06:43:31;;;;;;;15.95;7.63;;;-0.50;99.90;;;;;;5075646;28;20024;-91
2022/03/16 06:45:57;;;;;;;13.88;7.75;;;-0.40;99.90;;;;;;5075678;28;20020;-91
2022/03/16 06:48:23;;;;;;;15.90;8.20;;;-0.40;99.90;;;;;;5075576;28;20509;-91
2022/03/16 06:50:52;;;;;;;10.23;7.07;;;-0.30;99.90;;;;;;5075011;28;20028;-91
2022/03/16 06:53:18;;;;;;;12.13;7.95;;;-0.30;99.90;;;;;;5074715;28;20166;-91
2022/03/16 06:55:44;;;;;;;12.35;7.93;;;-0.20;99.90;;;;;;5075424;28;20052;-91
2022/03/16 06:58:09;;;;;;;12.27;7.28;;;-0.10;99.90;;;;;;5075484;28;20039;-91
2022/03/16 07:00:35;;;;;;;14.88;7.50;;;0.00;99.90;;;;;;5075172;28;20047;-91
2022/03/16 07:03:05;;;;;;;13.60;8.95;;;0.00;99.90;;;;;;5075137;28;20111;-91
2022/03/16 07:05:39;;;;;;;12.77;7.07;;;-0.10;99.90;;;;;;5074686;28;20487;-91
2022/03/16 07:08:14;;;;;;;13.50;6.78;;;-0.10;99.90;;;;;;5075132;28;20052;-90
2022/03/16 07:10:42;;;;;;;12.65;6.55;;;-0.30;99.90;;;;;;5078310;28;20024;-91
2022/03/16 07:13:10;;;;;;;12.93;7.53;;;-0.30;99.90;;;;;;5078056;28;20020;-91
2022/03/16 07:15:38;;;;;;;10.18;6.55;;;-0.30;99.90;;;;;;5078508;28;20050;-90
2022/03/16 07:18:04;;;;;;;10.90;6.78;;;-0.20;99.90;;;;;;5078630;28;20051;-90
2022/03/16 07:20:31;;;;;;;12.82;7.55;;;-0.30;99.90;;;;;;5078682;28;20028;-91
2022/03/16 07:23:17;;;;;;;11.82;7.18;;;-0.50;99.90;;;;;;5078570;28;20035;-91
2022/03/16 07:25:48;;;;;;;13.23;7.85;;;-0.40;99.90;;;;;;5078271;28;20028;-91
2022/03/16 07:28:15;;;;;;;12.75;7.47;;;-0.40;99.90;;;;;;5078448;28;20028;-90
2022/03/16 07:30:43;;;;;;;9.48;7.22;;;-0.30;99.90;;;;;;5078449;28;20029;-90
2022/03/16 07:33:09;;;;;;;12.10;7.38;;;-0.40;99.90;;;;;;5078451;28;20045;-89
2022/03/16 07:35:35;;;;;;;15.10;8.10;;;-0.40;99.90;;;;;;5078423;28;20020;-91
2022/03/16 07:38:02;;;;;;;12.07;7.82;;;-0.40;99.90;;;;;;5078187;28;20035;-90
2022/03/16 07:40:30;;;;;;;11.55;7.13;;;-0.50;99.90;;;;;;5078390;28;20031;-90
2022/03/16 07:42:56;;;;;;;11.60;7.05;;;-0.50;99.90;;;;;;5077939;28;20451;-91
2022/03/16 07:45:23;;;;;;;8.95;6.20;;;-0.50;99.90;;;;;;5078060;28;20055;-91
2022/03/16 07:47:50;;;;;;;9.57;6.50;;;-0.50;99.90;;;;;;5078044;28;20055;-91
2022/03/16 07:50:19;;;;;;;14.35;7.18;;;-0.40;99.90;;;;;;5077777;28;20020;-90
2022/03/16 07:52:46;;;;;;;12.45;6.93;;;-0.40;99.90;;;;;;5077908;28;20032;-91
2022/03/16 07:55:13;;;;;;;10.30;6.93;;;-0.40;99.90;;;;;;5077827;28;20020;-91
2022/03/16 07:57:39;;;;;;;12.90;7.00;;;-0.30;99.90;;;;;;5078089;28;20470;-91
2022/03/16 08:00:13;;;;;;;10.70;6.55;;;-0.30;99.90;;;;;;5078150;28;20028;-90
2022/03/16 08:02:40;;;;;;;9.15;5.90;;;-0.30;99.90;;;;;;5077988;28;20024;-90
2022/03/16 08:05:06;;;;;;;13.68;7.35;;;-0.30;99.90;;;;;;5078023;28;20386;-91
2022/03/16 08:07:32;;;;;;;11.85;6.85;;;-0.30;99.90;;;;;;5077637;28;20020;-91
2022/03/16 08:09:59;;;;;;;9.13;6.10;;;-0.30;99.90;;;;;;5077257;28;20067;-90
2022/03/16 08:12:25;;;;;;;11.95;7.00;;;-0.30;99.90;;;;;;5077894;28;20043;-90
2022/03/16 08:14:51;;;;;;;12.35;6.90;;;-0.40;99.90;;;;;;5077504;28;20110;-90
2022/03/16 08:17:17;;;;;;;11.55;6.75;;;-0.40;99.90;;;;;;5077339;28;20078;-90
2022/03/16 08:19:43;;;;;;;12.90;7.18;;;-0.50;99.90;;;;;;5077535;28;20020;-90
2022/03/16 08:22:08;;;;;;;14.95;7.47;;;-0.50;99.90;;;;;;5077199;28;20173;-90
2022/03/16 08:24:34;;;;;;;10.52;6.88;;;-0.50;99.90;;;;;;5077421;28;20028;-91
2022/03/16 08:27:00;;;;;;;12.40;7.15;;;-0.50;99.90;;;;;;5077337;28;20031;-91
2022/03/16 08:29:26;;;;;;;10.27;6.53;;;-0.40;99.90;;;;;;5077270;28;20023;-90
2022/03/16 08:31:51;;;;;;;11.02;6.45;;;-0.40;99.90;;;;;;5077266;28;20024;-91
2022/03/16 08:34:18;;;;;;;9.55;6.05;;;-0.30;99.90;;;;;;5077146;28;20020;-91
2022/03/16 08:36:44;;;;;;;10.10;6.70;;;-0.30;99.80;;;;;;5076854;28;20037;-91
2022/03/16 08:39:10;;;;;;;10.85;6.13;;;-0.20;99.30;;;;;;5077189;28;20020;-90
2022/03/16 08:41:35;;;;;;;9.35;6.40;;;-0.20;98.60;;;;;;5077272;28;20067;-90
2022/03/16 08:44:02;;;;;;;8.70;5.80;;;-0.10;98.40;;;;;;5077139;28;20036;-89
2022/03/16 08:46:28;;;;;;;9.23;6.38;;;-0.10;98.30;;;;;;5076973;28;20028;-91
2022/03/16 08:48:54;;;;;;;12.48;6.63;;;-0.10;98.40;;;;;;5076926;28;20474;-92
2022/03/16 08:51:20;;;;;;;9.02;5.85;;;0.00;98.40;;;;;;5076958;28;20053;-91
2022/03/16 08:53:45;;;;;;;11.25;7.78;;;-0.10;97.60;;;;;;5076385;28;20028;-91
2022/03/16 08:56:12;;;;;;;11.73;6.60;;;0.00;97.80;;;;;;5077240;28;20020;-91
2022/03/16 08:58:38;;;;;;;11.63;6.43;;;0.00;97.20;;;;;;5094991;28;20024;-91
2022/03/16 09:01:04;;;;;;;11.43;7.22;;;0.00;97.60;;;;;;5077008;28;20023;-91
2022/03/16 09:03:30;;;;;;;11.27;7.22;;;0.10;97.60;;;;;;5077035;28;20055;-92
2022/03/16 09:05:56;;;;;;;10.55;6.10;;;0.10;97.30;;;;;;5076496;28;20032;-91
2022/03/16 09:08:22;;;;;;;10.10;6.20;;;0.10;97.40;;;;;;5076278;28;20044;-91
2022/03/16 09:10:48;;;;;;;8.90;5.72;;;0.10;97.00;;;;;;5076744;28;20405;-91
2022/03/16 09:13:17;;;;;;;11.40;6.47;;;0.10;96.90;;;;;;5076367;28;20024;-91
2022/03/16 09:15:44;;;;;;;8.65;5.72;;;0.20;97.20;;;;;;5077036;28;20031;-92
2022/03/16 09:18:10;;;;;;;7.65;5.60;;;0.20;97.10;;;;;;5076530;28;20069;-91
2022/03/16 09:20:39;;;;;;;11.80;6.65;;;0.20;96.80;;;;;;5076567;28;20032;-92
2022/03/16 09:23:05;;;;;;;9.02;6.00;;;0.30;96.40;;;;;;5076628;28;20024;-91
2022/03/16 09:25:31;;;;;;;10.32;7.05;;;0.30;96.40;;;;;;5076493;28;20028;-91
2022/03/16 09:27:57;;;;;;;9.18;6.22;;;0.30;96.60;;;;;;5076282;28;20482;-92
2022/03/16 09:30:24;;;;;;;9.07;6.68;;;0.40;96.80;;;;;;5076660;28;20030;-92
2022/03/16 09:32:57;;;;;;;8.43;6.00;;;0.50;96.40;;;;;;5076525;28;20529;-92
2022/03/16 09:35:24;;;;;;;8.32;5.93;;;0.50;96.20;;;;;;5076421;28;20028;-91
2022/03/16 09:37:53;;;;;;;6.55;4.85;;;0.50;95.60;;;;;;5076276;28;20027;-91
2022/03/16 09:40:19;;;;;;;8.43;5.90;;;0.40;94.50;;;;;;5076449;28;20485;-92
2022/03/16 09:42:47;;;;;;;11.23;6.20;;;0.40;94.80;;;;;;5076475;28;20032;-91
2022/03/16 09:45:18;;;;;;;8.38;5.63;;;0.50;95.40;;;;;;5076662;28;20540;-91
2022/03/16 09:47:45;;;;;;;8.30;5.40;;;0.50;95.10;;;;;;5076210;28;20028;-92
2022/03/16 09:50:11;;;;;;;9.32;5.95;;;0.50;95.30;;;;;;5076254;28;20058;-91
2022/03/16 09:52:41;;;;;;;7.85;5.50;;;0.60;95.00;;;;;;5094212;28;20086;-92
2022/03/16 09:55:07;;;;;;;8.30;5.95;;;0.60;95.00;;;;;;5076163;28;20024;-91
2022/03/16 09:57:33;;;;;;;7.28;5.25;;;0.60;94.80;;;;;;5076229;28;20034;-91
2022/03/16 10:00:01;;;;;;;8.55;5.60;;;0.60;94.40;;;;;;5076175;28;20020;-89
2022/03/16 10:02:27;;;;;;;8.70;5.40;;;0.70;94.40;;;;;;5076559;28;20084;-91
2022/03/16 10:04:54;;;;;;;12.13;5.70;;;0.70;94.20;;;;;;5076249;28;20058;-91
2022/03/16 10:07:29;;;;;;;6.32;5.07;;;0.70;94.30;;;;;;5079003;28;20072;-91
2022/03/16 10:15:25;;;;;;;8.07;5.82;;;0.70;93.10;;;;;;5098270;28;20070;-90
2022/03/16 10:18:04;;;;;;;7.03;5.18;;;0.80;93.50;;;;;;5079720;28;20157;-91
2022/03/16 10:20:39;;;;;;;7.25;5.53;;;0.70;93.10;;;;;;5079672;28;20024;-91
2022/03/16 10:23:24;;;;;;;10.98;5.55;;;0.80;93.20;;;;;;5079600;28;20466;-90
2022/03/16 10:25:52;;;;;;;7.38;4.72;;;0.80;93.30;;;;;;5079622;28;20394;-90
2022/03/16 10:28:28;;;;;;;4.85;4.30;;;0.80;93.40;;;;;;5079719;28;20028;-92
2022/03/16 10:30:56;;;;;;;5.13;4.55;;;0.80;93.20;;;;;;5079517;28;20024;-91
2022/03/16 10:33:29;;;;;;;6.85;4.63;;;0.80;92.80;;;;;;5079515;28;20016;-90
2022/03/16 10:36:11;;;;;;;7.70;4.93;;;0.80;92.80;;;;;;5079291;28;20058;-91
2022/03/16 10:38:46;;;;;;;6.32;4.78;;;0.70;93.20;;;;;;5079244;28;20123;-91
2022/03/16 10:47:09;;;;;;;4.65;4.05;;;0.90;91.50;;;;;;5097644;28;20448;-91
2022/03/16 10:49:35;;;;;;;7.25;4.80;;;0.90;91.40;;;;;;5079357;28;20027;-91
2022/03/16 10:52:07;;;;;;;7.97;4.32;;;0.90;91.10;;;;;;5079228;28;20409;-91
2022/03/16 10:54:35;;;;;;;4.80;4.30;;;0.80;91.50;;;;;;5079227;28;20020;-90
2022/03/16 10:57:05;;;;;;;6.93;4.85;;;0.90;91.60;;;;;;5079033;28;20474;-91
2022/03/16 10:59:32;;;;;;;;;;;0.90;91.30;;;;;;5079387;28;20107;-89
2022/03/16 11:02:12;;;;;;;5.28;4.40;;;0.90;91.30;;;;;;5079007;28;19933;-90
2022/03/16 11:04:40;;;;;;;5.90;4.45;;;0.90;91.10;;;;;;5078696;28;20119;-91
2022/03/16 11:07:07;;;;;;;6.07;4.53;;;0.90;91.40;;;;;;5079136;28;20032;-90
2022/03/16 11:09:34;;;;;;;4.53;4.10;;;1.00;91.60;;;;;;5096897;28;20127;-90
2022/03/16 11:14:48;;;;;;;5.57;4.18;;;1.10;90.90;;;;;;5097144;28;20035;-90
2022/03/16 11:17:15;;;;;;;6.13;4.05;;;1.00;90.80;;;;;;5078060;28;20051;-91
2022/03/16 11:19:44;;;;;;;4.97;4.07;;;1.10;90.70;;;;;;5096604;28;20024;-90
2022/03/16 11:22:16;;;;;;;5.63;4.40;;;1.10;90.30;;;;;;5078479;28;20051;-90
2022/03/16 11:24:50;;;;;;;4.57;3.90;;;1.10;90.50;;;;;;5078454;28;20420;-90
2022/03/16 11:27:42;;;;;;;7.40;4.00;;;1.10;90.10;;;;;;5078383;28;20059;-90
2022/03/16 11:30:16;;;;;;;6.88;4.40;;;1.10;90.00;;;;;;5078129;28;20419;-90
2022/03/16 11:32:44;;;;;;;4.53;3.70;;;1.10;89.40;;;;;;5078489;28;20020;-90
2022/03/16 11:35:17;;;;;;;6.13;4.00;;;1.20;88.40;;;;;;5078113;28;20016;-90
2022/03/16 11:37:48;;;;;;;6.40;3.80;;;1.20;88.50;;;;;;5078375;28;20028;-91
2022/03/16 11:40:20;;;;;;;3.83;3.47;;;1.30;87.70;;;;;;5077948;28;20025;-88
2022/03/16 11:43:04;;;;;;;4.88;3.85;;;1.30;88.00;;;;;;5078049;28;20032;-89
2022/03/16 11:45:31;;;;;;;7.32;4.28;;;1.20;88.50;;;;;;5078366;28;20028;-91
2022/03/16 11:47:57;;;;;;;4.72;3.97;;;1.30;88.60;;;;;;5078390;28;20528;-89
2022/03/16 11:50:23;;;;;;;8.18;4.20;;;1.40;88.90;;;;;;5078019;28;20130;-91
2022/03/16 11:53:00;;;;;;;9.13;4.35;;;1.40;89.40;;;;;;5078203;28;20359;-89
2022/03/16 11:55:48;;;;;;;6.88;4.18;;;1.50;87.70;;;;;;5077755;28;20493;-90
2022/03/16 11:58:25;;;;;;;5.68;4.00;;;1.50;87.40;;;;;;5077936;28;20031;-90
2022/03/16 12:01:24;;;;;;;4.97;3.80;;;1.50;86.90;;;;;;5077805;28;20043;-90
2022/03/16 12:04:19;;;;;;;5.05;3.80;;;1.50;86.70;;;;;;5077857;28;20062;-89
2022/03/16 12:07:09;;;;;;;5.15;3.90;;;1.60;88.10;;;;;;5077582;28;20081;-90
2022/03/16 12:09:40;;;;;;;4.50;3.67;;;1.60;88.40;;;;;;5077627;28;20136;-90
2022/03/16 12:15:15;;;;;;;3.95;3.55;;;1.70;87.90;;;;;;5095881;28;20173;-90
2022/03/16 12:18:02;;;;;;;5.65;4.20;;;1.80;86.60;;;;;;5077803;28;20051;-89
2022/03/16 12:20:28;;;;;;;6.82;4.00;;;1.70;86.40;;;;;;5077267;28;20055;-89
2022/03/16 12:22:59;;;;;;;7.53;4.10;;;1.80;85.60;;;;;;5077444;28;20050;-90
2022/03/16 12:25:26;;;;;;;5.53;3.83;;;1.80;84.90;;;;;;5077344;28;20077;-90
2022/03/16 12:30:39;;;;;;;4.38;3.20;;;1.80;85.00;;;;;;5094840;28;20039;-90
2022/03/16 12:33:05;;;;;;;4.45;3.45;;;1.90;84.60;;;;;;5077292;28;20020;-90
2022/03/16 12:35:37;;;;;;;5.85;3.92;;;1.90;83.50;;;;;;5076942;28;20051;-90
2022/03/16 12:38:02;;;;;;;6.10;3.60;;;2.00;83.10;;;;;;5077121;28;20428;-90
2022/03/16 12:40:31;;;;;;;4.90;3.38;;;2.10;83.20;;;;;;5076942;28;20115;-90
2022/03/16 12:42:57;;;;;;;5.90;3.78;;;2.10;82.10;;;;;;5077198;28;20032;-90
2022/03/16 12:45:26;;;;;;;5.03;3.78;;;2.30;81.90;;;;;;5094801;28;20020;-90
2022/03/16 12:48:04;;;;;;;5.75;3.53;;;2.40;80.50;;;;;;5077042;28;20039;-90
2022/03/16 12:50:30;;;;;;;4.25;3.42;;;2.50;79.20;;;;;;5076612;28;20027;-90
2022/03/16 12:52:57;;;;;;;3.63;3.03;;;2.60;78.80;;;;;;5076755;28;20118;-90
2022/03/16 12:55:24;;;;;;;3.20;2.83;;;2.70;78.60;;;;;;5076710;28;20030;-90
2022/03/16 12:57:57;;;;;;;6.00;3.60;;;2.80;79.00;;;;;;5076996;28;20024;-91
2022/03/16 13:00:38;;;;;;;3.80;3.38;;;3.00;78.10;;;;;;5076806;28;20024;-90
2022/03/16 13:03:15;;;;;;;4.45;3.38;;;3.20;77.90;;;;;;5077175;28;20028;-90
2022/03/16 13:05:40;;;;;;;5.72;3.50;;;3.60;77.80;;;;;;5076682;28;20024;-90
2022/03/16 13:08:07;;;;;;;5.13;3.50;;;3.90;76.90;;;;;;5076579;28;20039;-91
2022/03/16 13:11:14;;;;;;;4.32;3.20;;;4.20;76.10;;;;;;5076805;28;20047;-91